Canora, Canada
Current Conditions -  °F | °C
As of 10:00 PM on Wednesday 17 Dec 2014 (Local Time) from CYQV Reporting Station
Light Snow Light Snow  
Wind Chill: -4°   Ceiling: 1500
Heat Index:   Visibility: 9mi
Dew Point:   Wind: 8mph
Humidity: 85%   Direction: 150°SSE
Pressure: 30.11"   Gusts: NA
Location:  51.63°N, 102.43°W
Report Text: CYQV 180400Z AUTO 15007KT 9SM -SN OVC015 M13/M15 A3011 RMK SLP236
Loading
Personal Weather Stations






























Interactive Weather Map New forecast layout! Learn more

10-Day Weather Forecast

Advertisements
Track Severe Weather on mobile